createdAt,value
2018-12-23T00:00:43.844Z,52.73
2018-12-23T00:03:12.431Z,53.84
2018-12-23T00:05:40.762Z,53.83
2018-12-23T00:08:09.173Z,54.21
2018-12-23T00:10:37.490Z,51.55
2018-12-23T00:13:06.095Z,52.41
2018-12-23T00:15:35.640Z,52.90
2018-12-23T00:18:13.976Z,54.54
2018-12-23T00:20:43.295Z,54.34
2018-12-23T00:23:11.653Z,56.30
2018-12-23T00:25:40.470Z,55.73
2018-12-23T00:28:08.898Z,56.35
2018-12-23T00:30:38.333Z,56.54
2018-12-23T00:33:06.769Z,56.03
2018-12-23T00:35:36.019Z,55.16
2018-12-23T00:38:05.487Z,54.69
2018-12-23T00:40:35.369Z,54.34
2018-12-23T00:43:04.204Z,54.57
2018-12-23T00:45:32.602Z,53.11
2018-12-23T00:48:06.448Z,55.25
2018-12-23T00:50:37.665Z,53.59
2018-12-23T00:53:07.925Z,51.28
2018-12-23T00:55:36.292Z,51.19
2018-12-23T00:58:04.601Z,54.58
2018-12-23T01:00:33.656Z,51.66
2018-12-23T01:03:01.977Z,52.07
2018-12-23T01:05:30.322Z,55.22
2018-12-23T01:07:58.744Z,57.89
2018-12-23T01:10:27.024Z,63.03
2018-12-23T01:12:55.320Z,66.46
2018-12-23T01:15:23.711Z,64.05
2018-12-23T01:17:52.026Z,64.21
2018-12-23T01:20:20.348Z,63.48
2018-12-23T01:22:48.813Z,60.88
2018-12-23T01:25:17.285Z,60.43
2018-12-23T01:27:45.574Z,60.56
2018-12-23T01:30:13.937Z,61.76
2018-12-23T01:32:42.214Z,59.97
2018-12-23T01:35:10.715Z,60.01
2018-12-23T01:37:39.025Z,58.39
2018-12-23T01:40:07.421Z,59.38
2018-12-23T01:42:35.800Z,60.13
2018-12-23T01:45:04.655Z,60.39
2018-12-23T01:47:32.932Z,58.28
2018-12-23T01:50:01.406Z,60.70
2018-12-23T01:52:30.061Z,58.04
2018-12-23T01:54:58.411Z,58.61
2018-12-23T01:57:26.896Z,57.49
2018-12-23T01:59:55.210Z,57.99
2018-12-23T02:02:23.481Z,57.99
2018-12-23T02:04:51.741Z,58.06
2018-12-23T02:07:20.047Z,58.16
2018-12-23T02:09:48.542Z,58.88
2018-12-23T02:12:17.377Z,57.97
2018-12-23T02:14:46.779Z,56.60
2018-12-23T02:17:15.103Z,56.00
2018-12-23T02:19:43.390Z,56.94
2018-12-23T02:22:11.751Z,55.52
2018-12-23T02:24:41.378Z,54.27
2018-12-23T02:27:09.760Z,54.55
2018-12-23T02:29:38.138Z,55.37
2018-12-23T02:32:06.511Z,56.20
2018-12-23T02:34:34.819Z,54.79
2018-12-23T02:37:03.264Z,54.83
2018-12-23T02:39:31.536Z,56.71
2018-12-23T02:41:59.995Z,55.05
2018-12-23T02:44:28.312Z,54.84
2018-12-23T02:46:56.554Z,57.07
2018-12-23T02:49:24.871Z,57.72
2018-12-23T02:51:53.181Z,56.13
2018-12-23T02:54:21.622Z,56.88
2018-12-23T02:56:49.950Z,54.73
2018-12-23T02:59:33.599Z,54.74
2018-12-23T03:02:02.087Z,55.71
2018-12-23T03:04:30.392Z,53.48
2018-12-23T03:06:58.905Z,54.79
2018-12-23T03:09:27.277Z,54.48
2018-12-23T03:11:55.724Z,55.62
2018-12-23T03:14:24.149Z,55.25
2018-12-23T03:16:52.495Z,55.08
2018-12-23T03:19:20.891Z,54.61
2018-12-23T03:21:49.294Z,54.00
2018-12-23T03:24:17.632Z,53.95
2018-12-23T03:26:45.945Z,52.63
2018-12-23T03:29:14.235Z,52.20
2018-12-23T03:31:42.472Z,52.82
2018-12-23T03:34:10.855Z,51.72
2018-12-23T03:36:39.214Z,50.92
2018-12-23T03:39:07.771Z,51.24
2018-12-23T03:41:36.290Z,50.31
2018-12-23T03:44:04.674Z,51.33
2018-12-23T03:46:33.214Z,50.13
2018-12-23T03:49:01.552Z,50.75
2018-12-23T03:51:29.878Z,51.60
2018-12-23T03:53:58.169Z,50.13
2018-12-23T03:56:26.559Z,51.88
2018-12-23T03:58:54.862Z,51.42
2018-12-23T04:01:23.231Z,51.17
2018-12-23T04:03:51.493Z,51.21
2018-12-23T04:06:24.411Z,51.00
2018-12-23T04:08:50.251Z,51.37
2018-12-23T04:11:18.571Z,52.69
2018-12-23T04:13:46.899Z,52.70
2018-12-23T04:16:15.215Z,53.92
2018-12-23T04:18:43.796Z,51.89
2018-12-23T04:21:12.064Z,51.27
2018-12-23T04:23:40.279Z,50.14
2018-12-23T04:26:08.599Z,49.82
2018-12-23T04:28:37.094Z,49.29
2018-12-23T04:31:05.468Z,49.80
2018-12-23T04:33:34.088Z,50.94
2018-12-23T04:36:02.378Z,52.13
2018-12-23T04:38:30.739Z,52.60
2018-12-23T04:40:59.055Z,52.32
2018-12-23T04:43:27.347Z,53.33
2018-12-23T04:45:56.000Z,52.38
2018-12-23T04:48:24.589Z,53.30
2018-12-23T04:50:52.941Z,52.54
2018-12-23T04:53:21.248Z,52.19
2018-12-23T04:55:49.561Z,54.04
2018-12-23T04:58:17.944Z,52.98
2018-12-23T05:00:46.315Z,53.19
2018-12-23T05:03:14.630Z,51.95
2018-12-23T05:05:42.964Z,51.32
2018-12-23T05:08:11.373Z,53.20
2018-12-23T05:10:39.830Z,52.19
2018-12-23T05:13:08.125Z,54.09
2018-12-23T05:15:36.486Z,52.36
2018-12-23T05:18:04.770Z,50.80
2018-12-23T05:20:33.039Z,51.41
2018-12-23T05:23:01.569Z,53.25
2018-12-23T05:25:29.918Z,52.83
2018-12-23T05:27:58.364Z,52.01
2018-12-23T05:30:26.596Z,52.81
2018-12-23T05:32:54.870Z,51.98
2018-12-23T05:35:23.294Z,50.42
2018-12-23T05:37:51.728Z,51.49
2018-12-23T05:40:20.082Z,50.06
2018-12-23T05:42:48.569Z,48.88
2018-12-23T05:45:17.016Z,50.06
2018-12-23T05:47:45.318Z,50.01
2018-12-23T05:50:13.707Z,48.59
2018-12-23T05:52:41.999Z,49.94
2018-12-23T05:55:10.403Z,50.69
2018-12-23T05:57:38.768Z,50.37
2018-12-23T06:00:07.402Z,51.39
2018-12-23T06:02:35.699Z,51.60
2018-12-23T06:05:04.313Z,50.72
2018-12-23T06:07:32.708Z,52.17
2018-12-23T06:10:01.104Z,52.63
2018-12-23T06:12:30.492Z,52.23
2018-12-23T06:14:58.837Z,51.14
2018-12-23T06:17:27.461Z,51.32
2018-12-23T06:19:55.776Z,52.62
2018-12-23T06:22:24.270Z,50.91
2018-12-23T06:24:52.617Z,50.89
2018-12-23T06:27:20.944Z,50.72
2018-12-23T06:29:49.237Z,51.44
2018-12-23T06:32:17.709Z,53.96
2018-12-23T06:34:46.030Z,53.30
2018-12-23T06:37:14.530Z,53.33
2018-12-23T06:39:42.977Z,52.98
2018-12-23T06:42:11.316Z,52.79
2018-12-23T06:44:40.448Z,52.96
2018-12-23T06:47:08.793Z,53.40
2018-12-23T06:49:37.242Z,54.58
2018-12-23T06:52:05.783Z,53.17
2018-12-23T06:54:34.224Z,52.42
2018-12-23T06:57:02.615Z,52.51
2018-12-23T06:59:31.712Z,52.02
2018-12-23T07:01:59.966Z,54.24
2018-12-23T07:04:28.224Z,52.59
2018-12-23T07:06:56.605Z,51.26
2018-12-23T07:09:24.913Z,50.97
2018-12-23T07:11:53.314Z,51.94
2018-12-23T07:14:21.647Z,53.36
2018-12-23T07:16:50.689Z,53.36
2018-12-23T07:19:18.917Z,52.57
2018-12-23T07:21:47.336Z,52.90
2018-12-23T07:24:16.037Z,53.16
2018-12-23T07:26:44.362Z,53.29
2018-12-23T07:29:12.680Z,54.63
2018-12-23T07:31:41.223Z,53.24
2018-12-23T07:34:10.192Z,54.60
2018-12-23T07:37:29.171Z,55.91
2018-12-23T07:40:18.097Z,53.98
2018-12-23T07:43:06.825Z,53.95
2018-12-23T07:45:55.404Z,52.35
2018-12-23T07:48:44.456Z,52.81
2018-12-23T07:51:33.199Z,52.92
2018-12-23T07:54:21.752Z,51.02
2018-12-23T07:57:10.718Z,50.62
2018-12-23T07:59:59.476Z,51.09
2018-12-23T08:02:29.094Z,50.51
2018-12-23T08:05:17.578Z,49.64
2018-12-23T08:08:06.093Z,49.97
2018-12-23T08:10:54.846Z,49.59
2018-12-23T08:16:18.738Z,49.17
2018-12-23T08:19:07.179Z,48.96
2018-12-23T08:21:55.935Z,49.93
2018-12-23T08:30:16.079Z,50.32
2018-12-23T08:33:04.513Z,49.28
2018-12-23T08:35:53.382Z,50.00
2018-12-23T08:38:42.578Z,49.08
2018-12-23T08:41:33.031Z,49.44
2018-12-23T08:44:22.080Z,49.92
2018-12-23T08:47:10.967Z,51.82
2018-12-23T08:49:59.924Z,51.13
2018-12-23T08:55:56.280Z,50.29
2018-12-23T08:58:45.110Z,49.67
2018-12-23T09:01:34.133Z,50.33
2018-12-23T09:04:23.161Z,48.29
2018-12-23T09:07:11.922Z,50.81
2018-12-23T09:10:00.928Z,51.81
2018-12-23T09:12:49.339Z,52.10
2018-12-23T09:15:37.769Z,50.60
2018-12-23T09:18:46.829Z,50.74
2018-12-23T09:21:35.888Z,51.18
2018-12-23T09:24:24.596Z,50.96
2018-12-23T09:26:55.056Z,50.22
2018-12-23T09:29:43.899Z,51.23
2018-12-23T09:32:32.767Z,51.55
2018-12-23T09:38:01.653Z,51.66
2018-12-23T09:40:50.758Z,51.26
2018-12-23T09:43:39.467Z,49.42
2018-12-23T09:46:28.277Z,51.27
2018-12-23T09:49:17.019Z,49.02
2018-12-23T09:52:05.779Z,47.63
2018-12-23T09:54:54.342Z,48.10
2018-12-23T09:57:43.491Z,49.61
2018-12-23T10:00:32.172Z,48.61
2018-12-23T10:03:20.697Z,50.33
2018-12-23T10:05:50.313Z,49.52
2018-12-23T10:11:27.877Z,49.44
2018-12-23T10:14:16.117Z,49.59
2018-12-23T10:17:04.833Z,47.51
2018-12-23T10:19:53.683Z,47.55
2018-12-23T10:22:42.230Z,49.00
2018-12-23T10:25:30.966Z,47.93
2018-12-23T10:28:19.777Z,46.70
2018-12-23T10:31:08.625Z,46.98
2018-12-23T10:37:04.772Z,48.28
2018-12-23T10:39:53.525Z,48.16
2018-12-23T10:42:42.078Z,48.20
2018-12-23T10:45:30.828Z,48.40
2018-12-23T10:48:19.355Z,47.15
2018-12-23T10:51:08.035Z,47.92
2018-12-23T10:53:56.687Z,46.77
2018-12-23T10:56:45.431Z,46.96
2018-12-23T10:59:34.212Z,47.33
2018-12-23T11:02:22.949Z,47.49
2018-12-23T11:05:11.799Z,48.51
2018-12-23T11:08:00.103Z,49.65
2018-12-23T11:10:48.643Z,48.30
2018-12-23T11:13:37.051Z,48.56
2018-12-23T11:16:25.429Z,46.84
2018-12-23T11:19:14.167Z,47.95
2018-12-23T11:22:02.941Z,48.05
2018-12-23T11:24:51.688Z,48.17
2018-12-23T11:30:15.685Z,47.14
2018-12-23T11:32:45.598Z,47.62
2018-12-23T11:35:34.016Z,47.67
2018-12-23T11:38:22.532Z,47.40
2018-12-23T11:41:11.130Z,47.96
2018-12-23T11:44:00.225Z,49.77
2018-12-23T11:46:48.652Z,50.96
2018-12-23T11:49:37.383Z,49.99
2018-12-23T11:52:26.259Z,50.09
2018-12-23T11:54:55.690Z,50.78
2018-12-23T11:57:44.090Z,52.16
2018-12-23T12:00:32.368Z,53.50
2018-12-23T12:03:20.829Z,52.02
2018-12-23T12:05:50.119Z,52.75
2018-12-23T12:08:43.674Z,52.66
2018-12-23T12:11:29.173Z,53.94
2018-12-23T12:14:17.919Z,54.79
2018-12-23T12:17:06.390Z,54.30
2018-12-23T12:19:55.118Z,55.16
2018-12-23T12:22:44.188Z,54.27
2018-12-23T12:25:32.963Z,53.06
2018-12-23T12:28:21.355Z,54.94
2018-12-23T12:31:10.245Z,52.63
2018-12-23T12:33:58.977Z,54.30
2018-12-23T12:36:47.708Z,54.48
2018-12-23T12:39:36.720Z,54.03
2018-12-23T12:42:06.437Z,53.86
2018-12-23T12:44:36.490Z,52.88
2018-12-23T12:47:06.594Z,52.67
2018-12-23T12:49:55.489Z,51.12
2018-12-23T12:52:44.496Z,52.68
2018-12-23T12:55:33.059Z,51.98
2018-12-23T12:58:21.578Z,51.02
2018-12-23T13:01:10.863Z,50.65
2018-12-23T13:04:19.971Z,48.96
2018-12-23T13:06:49.974Z,48.76
2018-12-23T13:09:39.086Z,51.28
2018-12-23T13:12:08.937Z,50.63
2018-12-23T13:14:39.214Z,50.91
2018-12-23T13:17:09.278Z,50.77
2018-12-23T13:19:58.142Z,49.58
2018-12-23T13:22:28.008Z,48.64
2018-12-23T13:25:16.880Z,48.21
2018-12-23T13:27:47.783Z,48.10
2018-12-23T13:30:36.379Z,48.97
2018-12-23T13:33:05.966Z,49.10
2018-12-23T13:35:35.365Z,49.35
2018-12-23T13:38:24.028Z,50.05
2018-12-23T13:41:09.912Z,49.89
2018-12-23T13:44:17.598Z,50.49
2018-12-23T13:47:25.312Z,49.63
2018-12-23T13:50:28.371Z,49.89
2018-12-23T13:53:36.131Z,49.23
2018-12-23T13:56:43.719Z,49.40
2018-12-23T13:59:51.141Z,49.51
2018-12-23T14:02:58.936Z,49.04
2018-12-23T14:06:06.552Z,51.01
2018-12-23T14:08:59.051Z,50.37
2018-12-23T14:12:06.628Z,50.55
2018-12-23T14:14:36.060Z,51.02
2018-12-23T14:17:06.033Z,50.86
2018-12-23T14:19:54.845Z,50.55
2018-12-23T14:22:25.248Z,51.14
2018-12-23T14:25:14.046Z,51.27
2018-12-23T14:27:43.803Z,50.12
2018-12-23T14:30:32.892Z,51.75
2018-12-23T14:33:21.631Z,51.69
2018-12-23T14:36:10.811Z,51.80
2018-12-23T14:38:40.757Z,53.31
2018-12-23T14:41:10.742Z,52.39
2018-12-23T14:43:40.850Z,51.74
2018-12-23T14:46:29.459Z,52.16
2018-12-23T14:48:59.325Z,50.98
2018-12-23T14:51:28.661Z,51.40
2018-12-23T14:53:58.790Z,54.64
2018-12-23T14:56:47.627Z,53.97
2018-12-23T15:02:24.903Z,54.52
2018-12-23T15:05:13.601Z,54.72
2018-12-23T15:07:43.171Z,55.05
2018-12-23T15:10:31.968Z,55.80
2018-12-23T15:13:01.792Z,55.58
2018-12-23T15:15:50.438Z,54.85
2018-12-23T15:21:54.549Z,54.51
2018-12-23T15:24:43.631Z,55.62
2018-12-23T15:27:13.210Z,55.02
2018-12-23T15:29:43.199Z,58.15
2018-12-23T15:32:31.871Z,56.86
2018-12-23T15:35:20.760Z,56.37
2018-12-23T15:38:09.554Z,56.43
2018-12-23T15:40:58.243Z,55.33
2018-12-23T15:43:46.850Z,54.70
2018-12-23T15:49:23.893Z,53.52
2018-12-23T15:55:02.286Z,55.64
2018-12-23T15:57:33.747Z,54.28
2018-12-23T16:00:04.016Z,54.44
2018-12-23T16:02:33.823Z,55.66
2018-12-23T16:05:22.140Z,54.70
2018-12-23T16:08:10.939Z,56.55
2018-12-23T16:13:35.945Z,57.45
2018-12-23T16:16:05.292Z,57.25
2018-12-23T16:18:54.445Z,56.66
2018-12-23T16:21:43.388Z,58.72
2018-12-23T16:24:32.108Z,55.38
2018-12-23T16:27:02.567Z,57.84
2018-12-23T16:29:51.500Z,56.89
2018-12-23T16:32:40.282Z,55.85
2018-12-23T16:35:28.739Z,57.28
2018-12-23T16:38:17.748Z,57.11
2018-12-23T16:41:06.300Z,57.98
2018-12-23T16:43:54.719Z,57.43
2018-12-23T16:46:43.432Z,57.94
2018-12-23T16:49:31.716Z,57.44
2018-12-23T16:52:20.227Z,59.15
2018-12-23T16:55:09.007Z,58.45
2018-12-23T17:00:51.565Z,57.91
2018-12-23T17:04:00.795Z,59.42
2018-12-23T17:06:30.864Z,58.93
2018-12-23T17:09:00.590Z,58.51
2018-12-23T17:11:30.918Z,55.84
2018-12-23T17:14:19.992Z,58.55
2018-12-23T17:17:08.746Z,60.63
2018-12-23T17:19:57.607Z,59.68
2018-12-23T17:22:26.915Z,60.58
2018-12-23T17:25:15.211Z,61.33
2018-12-23T17:28:03.653Z,60.27
2018-12-23T17:30:33.408Z,59.23
2018-12-23T17:33:22.506Z,59.49
2018-12-23T17:36:11.333Z,59.07
2018-12-23T17:38:40.880Z,57.33
2018-12-23T17:41:10.358Z,57.49
2018-12-23T17:43:40.080Z,57.22
2018-12-23T17:46:28.847Z,57.69
2018-12-23T17:49:17.705Z,58.30
2018-12-23T17:52:08.909Z,57.19
2018-12-23T17:57:27.477Z,58.47
2018-12-23T18:00:15.928Z,58.64
2018-12-23T18:03:04.644Z,56.25
2018-12-23T18:05:53.444Z,55.93
2018-12-23T18:08:42.091Z,58.83
2018-12-23T18:11:30.567Z,58.54
2018-12-23T18:14:19.584Z,59.38
2018-12-23T18:17:09.143Z,58.01
2018-12-23T18:19:57.557Z,58.75
2018-12-23T18:22:27.821Z,56.49
2018-12-23T18:25:16.594Z,59.04
2018-12-23T18:27:46.725Z,59.27
2018-12-23T18:30:35.147Z,59.53
2018-12-23T18:33:05.172Z,59.82
2018-12-23T18:35:54.010Z,58.24
2018-12-23T18:40:58.395Z,59.20
2018-12-23T18:43:27.824Z,61.47
2018-12-23T18:45:58.181Z,59.05
2018-12-23T18:48:47.313Z,58.44
2018-12-23T18:51:36.281Z,59.46
2018-12-23T18:54:25.051Z,58.43
2018-12-23T18:57:00.949Z,60.12
2018-12-23T19:00:10.232Z,59.42
2018-12-23T19:02:59.332Z,57.61
2018-12-23T19:05:48.046Z,56.10
2018-12-23T19:08:41.052Z,57.71
2018-12-23T19:11:30.039Z,57.48
2018-12-23T19:14:11.076Z,59.06
2018-12-23T19:17:07.382Z,60.23
2018-12-23T19:20:14.800Z,61.32
2018-12-23T19:23:06.739Z,56.94
2018-12-23T19:26:14.545Z,60.00
2018-12-23T19:29:29.937Z,60.31
2018-12-23T19:32:37.595Z,60.67
2018-12-23T19:35:45.320Z,59.50
2018-12-23T19:38:34.053Z,57.95
2018-12-23T19:41:41.424Z,58.91
2018-12-23T19:44:49.105Z,57.67
2018-12-23T19:47:56.758Z,56.62
2018-12-23T19:51:04.206Z,58.33
2018-12-23T19:54:11.613Z,55.89
2018-12-23T19:57:19.261Z,59.11
2018-12-23T20:00:27.226Z,58.00
2018-12-23T20:03:31.316Z,58.49
2018-12-23T20:06:38.795Z,56.28
2018-12-23T20:09:32.624Z,57.65
2018-12-23T20:12:41.385Z,58.24
2018-12-23T20:15:32.295Z,57.26
2018-12-23T20:18:39.995Z,58.59
2018-12-23T20:21:47.440Z,57.77
2018-12-23T20:24:55.123Z,58.81
2018-12-23T20:28:02.554Z,60.34
2018-12-23T20:31:10.218Z,55.90
2018-12-23T20:36:57.293Z,59.18
2018-12-23T20:40:19.726Z,59.83
2018-12-23T20:43:40.383Z,59.55
2018-12-23T20:46:48.382Z,60.01
2018-12-23T20:49:44.097Z,60.89
2018-12-23T20:52:42.384Z,60.17
2018-12-23T20:55:45.067Z,59.48
2018-12-23T20:58:39.331Z,57.89
2018-12-23T21:01:40.555Z,58.04
2018-12-23T21:04:41.755Z,55.19
2018-12-23T21:07:41.958Z,56.91
2018-12-23T21:10:41.020Z,57.27
2018-12-23T21:13:47.136Z,57.77
2018-12-23T21:16:44.394Z,55.25
2018-12-23T21:20:12.501Z,57.33
2018-12-23T21:23:24.868Z,59.33
2018-12-23T21:26:41.576Z,58.96
2018-12-23T21:29:39.947Z,56.89
2018-12-23T21:32:43.881Z,58.00
2018-12-23T21:36:00.074Z,58.27
2018-12-23T21:38:57.640Z,57.16
2018-12-23T21:42:01.547Z,57.41
2018-12-23T21:45:20.517Z,59.03
2018-12-23T21:48:22.718Z,57.82
2018-12-23T21:51:18.928Z,57.73
2018-12-23T21:54:27.514Z,56.94
2018-12-23T21:57:41.646Z,57.31
2018-12-23T22:00:41.178Z,56.54
2018-12-23T22:03:55.003Z,57.03
2018-12-23T22:06:43.606Z,58.20
2018-12-23T22:09:54.260Z,57.79
2018-12-23T22:13:00.281Z,58.89
2018-12-23T22:15:30.188Z,59.19
2018-12-23T22:17:59.319Z,59.70
2018-12-23T22:20:28.966Z,59.89
2018-12-23T22:22:58.466Z,61.41
2018-12-23T22:25:28.489Z,60.14
2018-12-23T22:28:01.052Z,59.47
2018-12-23T22:30:31.066Z,62.16
2018-12-23T22:33:00.424Z,61.51
2018-12-23T22:35:29.984Z,63.07
2018-12-23T22:38:00.411Z,62.57
2018-12-23T22:40:29.442Z,61.63
2018-12-23T22:42:58.617Z,62.81
2018-12-23T22:45:28.543Z,61.84
2018-12-23T22:47:58.121Z,60.92
2018-12-23T22:50:27.570Z,62.04
2018-12-23T22:52:58.301Z,61.99
2018-12-23T22:55:27.950Z,61.67
2018-12-23T22:57:58.046Z,61.88
2018-12-23T23:00:31.359Z,60.20
2018-12-23T23:03:08.752Z,61.96
2018-12-23T23:05:36.329Z,61.77
2018-12-23T23:08:08.714Z,61.42
2018-12-23T23:10:40.257Z,61.63
2018-12-23T23:13:18.305Z,60.82
2018-12-23T23:15:41.156Z,60.77
2018-12-23T23:18:10.454Z,61.89
2018-12-23T23:20:39.942Z,62.26
2018-12-23T23:23:09.867Z,61.64
2018-12-23T23:25:39.457Z,62.80
2018-12-23T23:28:08.724Z,63.10
2018-12-23T23:30:40.021Z,62.61
2018-12-23T23:33:09.807Z,63.10
2018-12-23T23:35:44.644Z,61.19
2018-12-23T23:38:17.145Z,61.28
2018-12-23T23:40:47.204Z,61.91
2018-12-23T23:43:18.157Z,62.35
2018-12-23T23:45:49.530Z,62.87
2018-12-23T23:48:21.579Z,61.53
2018-12-23T23:50:52.560Z,62.66
2018-12-23T23:53:24.260Z,64.99
2018-12-23T23:55:54.037Z,64.45
2018-12-23T23:58:23.488Z,64.91
